GW0077 Weather Reports


time (UTC)temp
F
wind
direction
speed
knots
gust
knots
rain 1hr
in
rain 24hr
in
rain mn
in
humidity
%
barometer
mb
20260509013233 64 200 1.7 2.6 0.00 0.00 0.00 56 1011.3
20260509012726 64 195 1.7 2.6 0.00 0.00 0.00 56 1011.4
20260509012219 64 208 1.7 2.6 0.00 0.00 0.00 55 1011.4
20260509011712 64 201 1.7 2.6 0.00 0.00 0.00 55 1011.4
20260509011246 64 204 1.7 2.6 0.00 0.00 0.00 55 1011.4
20260509010722 64 196 1.7 2.6 0.00 0.00 0.00 54 1011.3
20260509010215 64 201 1.7 3.5 0.00 0.00 0.00 55 1011.5
20260509005722 65 234 1.7 3.5 0.00 0.00 0.00 54 1011.4
20260509005215 65 212 1.7 5.2 0.00 0.00 0.00 53 1011.3
20260509004728 65 205 2.6 4.3 0.00 0.00 0.00 53 1011.2
20260509004240 65 206 1.7 4.3 0.00 0.00 0.00 53 1011.2
20260509003731 65 201 2.6 4.3 0.00 0.00 0.00 52 1011.3
20260509003223 66 231 1.7 4.3 0.00 0.00 0.00 53 1011.2
20260509002736 66 216 1.7 4.3 0.00 0.00 0.00 52 1011.1
20260509002228 66 213 1.7 3.5 0.00 0.00 0.00 52 1011.2
20260509001744 66 212 1.7 5.2 0.00 0.00 0.00 51 1011.1
20260509001217 66 215 2.6 4.3 0.00 0.00 0.00 51 1011.1
20260509000750 67 217 2.6 7.0 0.00 0.00 0.00 51 1011.2
20260509000221 67 204 3.5 7.0 0.00 0.00 0.00 50 1011.3
20260508235727 67 207 1.7 5.2 0.00 0.00 0.00 50 1011.3
20260508235239 67 211 2.6 8.7 0.00 0.00 0.00 50 1011.3
20260508234731 67 210 4.3 8.7 0.00 0.00 0.00 51 1011.3
20260508234243 67 214 4.3 7.8 0.00 0.00 0.00 50 1011.3
20260508233714 67 196 2.6 5.2 0.00 0.00 0.00 49 1011.3
20260508233227 68 184 3.5 7.0 0.00 0.00 0.00 50 1011.3
20260508232723 68 191 3.5 7.0 0.00 0.00 0.00 48 1011.3
20260508232237 68 213 2.6 8.7 0.00 0.00 0.00 49 1011.3
20260508231749 68 192 4.3 7.8 0.00 0.00 0.00 48 1011.4
20260508231220 68 197 4.3 7.8 0.00 0.00 0.00 48 1011.4
20260508230713 68 214 2.6 7.0 0.00 0.00 0.00 48 1011.3
20260508230225 69 197 3.5 9.6 0.00 0.00 0.00 48 1011.3
20260508225751 69 218 5.2 9.6 0.00 0.00 0.00 46 1011.3
20260508225223 69 222 3.5 8.7 0.00 0.00 0.00 47 1011.2
20260508224716 70 214 5.2 13.0 0.00 0.00 0.00 45 1011.2
20260508224229 70 183 4.3 11.3 0.00 0.00 0.00 47 1011.1
20260508223724 70 207 4.3 11.3 0.00 0.00 0.00 47 1011.1
20260508223217 70 220 6.1 11.3 0.00 0.00 0.00 47 1011.0
20260508222730 70 261 6.1 9.6 0.00 0.00 0.00 48 1011.0
20260508222222 70 195 5.2 8.7 0.00 0.00 0.00 47 1011.0
20260508221715 69 198 4.3 10.4 0.00 0.00 0.00 47 1011.0
20260508221228 70 259 6.1 12.2 0.00 0.00 0.00 45 1011.1
20260508220721 70 196 5.2 13.9 0.00 0.00 0.00 46 1011.1
20260508220214 71 202 5.2 8.7 0.00 0.00 0.00 45 1011.1
20260508215725 71 211 4.3 7.8 0.00 0.00 0.00 45 1011.2
20260508215217 71 192 3.5 12.2 0.00 0.00 0.00 47 1011.2
20260508214730 70 208 4.3 12.2 0.00 0.00 0.00 47 1011.2
20260508214223 70 219 5.2 10.4 0.00 0.00 0.00 46 1011.2
20260508213715 71 194 2.6 13.9 0.00 0.00 0.00 47 1011.2
20260508213228 71 224 4.3 13.9 0.00 0.00 0.00 44 1011.2
20260508212720 72 203 4.3 7.8 0.00 0.00 0.00 45 1011.3
20260508212213 71 225 5.2 10.4 0.00 0.00 0.00 45 1011.4
20260508211746 71 215 5.2 10.4 0.00 0.00 0.00 44 1011.4
20260508211221 71 250 4.3 11.3 0.00 0.00 0.00 47 1011.5
20260508210714 70 179 4.3 12.2 0.00 0.00 0.00 48 1011.6
20260508210227 70 226 5.2 12.2 0.00 0.00 0.00 46 1011.5
20260508205713 71 238 5.2 11.3 0.00 0.00 0.00 46 1011.7
20260508205226 72 285 3.5 9.6 0.00 0.00 0.00 48 1011.8
20260508204720 71 263 4.3 9.6 0.00 0.00 0.00 49 1011.8
20260508204232 72 222 6.1 13.0 0.00 0.00 0.00 44 1011.9
20260508203745 72 236 7.0 13.0 0.00 0.00 0.00 44 1012.1
20260508203221 72 221 5.2 9.6 0.00 0.00 0.00 47 1012.2
20260508202714 72 240 3.5 10.4 0.00 0.00 0.00 46 1012.2
20260508202227 71 229 6.1 11.3 0.00 0.00 0.00 45 1012.1
20260508201720 71 231 7.0 11.3 0.00 0.00 0.00 45 1012.3
20260508201213 72 219 4.3 12.2 0.00 0.00 0.00 45 1012.5
20260508200725 72 244 5.2 12.2 0.00 0.00 0.00 43 1012.5
20260508200219 71 203 2.6 7.8 0.00 0.00 0.00 49 1012.5
20260508195724 71 234 0.9 9.6 0.00 0.00 0.00 50 1012.6
20260508195221 70 224 6.1 11.3 0.00 0.00 0.00 44 1012.7
20260508194731 70 181 5.2 11.3 0.00 0.00 0.00 44 1012.8
20260508194243 71 213 4.3 10.4 0.00 0.00 0.00 44 1012.6
20260508193715 71 193 4.3 13.0 0.00 0.00 0.00 43 1012.7
20260508193229 71 204 6.1 13.0 0.00 0.00 0.00 44 1012.7
20260508192721 71 191 4.3 12.2 0.00 0.00 0.00 43 1012.6
20260508192214 71 146 5.2 10.4 0.00 0.00 0.00 44 1012.6
20260508191746 71 222 4.3 10.4 0.00 0.00 0.00 42 1012.6
20260508191217 71 182 3.5 10.4 0.00 0.00 0.00 46 1012.7
20260508190715 71 195 2.6 10.4 0.00 0.00 0.00 45 1012.8
20260508190228 71 265 5.2 10.4 0.00 0.00 0.00 42 1012.9
20260508185714 71 238 4.3 10.4 0.00 0.00 0.00 43 1013.0
20260508185227 70 225 4.3 10.4 0.00 0.00 0.00 45 1013.0
20260508184721 71 184 4.3 10.4 0.00 0.00 0.00 44 1013.1
20260508184214 70 284 1.7 10.4 0.00 0.00 0.00 45 1013.1
20260508183727 70 224 1.7 11.3 0.00 0.00 0.00 46 1013.1
20260508183221 70 191 7.0 11.3 0.00 0.00 0.00 45 1013.2
20260508182719 70 222 6.1 11.3 0.00 0.00 0.00 44 1013.4
20260508182231 71 251 3.5 10.4 0.00 0.00 0.00 42 1013.4
20260508181725 71 143 3.5 10.4 0.00 0.00 0.00 45 1013.4
20260508181219 70 243 4.3 10.4 0.00 0.00 0.00 44 1013.7
20260508180732 70 246 5.2 10.4 0.00 0.00 0.00 46 1013.8
20260508180225 69 245 3.5 9.6 0.00 0.00 0.00 44 1014.0
20260508175732 69 206 6.1 11.3 0.00 0.00 0.00 43 1013.9
20260508175225 69 188 6.1 17.4 0.00 0.00 0.00 44 1014.1
20260508174722 69 200 7.0 17.4 0.00 0.00 0.00 44 1014.3
20260508174215 69 226 4.3 7.8 0.00 0.00 0.00 46 1014.4
20260508173728 69 182 3.5 10.4 0.00 0.00 0.00 47 1014.5
20260508173222 69 278 7.0 10.4 0.00 0.00 0.00 45 1014.7
20260508172715 68 257 5.2 9.6 0.00 0.00 0.00 47 1014.7
20260508172229 68 249 4.3 12.2 0.00 0.00 0.00 48 1014.8
20260508171722 68 231 4.3 12.2 0.00 0.00 0.00 48 1014.8
20260508171236 68 189 7.8 12.2 0.00 0.00 0.00 48 1014.8
20260508170713 68 288 3.5 10.4 0.00 0.00 0.00 52 1015.1
20260508170227 68 245 4.3 10.4 0.00 0.00 0.00 50 1015.2
20260508165712 67 259 3.5 10.4 0.00 0.00 0.00 50 1015.3
20260508165226 68 240 6.1 11.3 0.00 0.00 0.00 49 1015.5
20260508164720 68 272 5.2 11.3 0.00 0.00 0.00 49 1015.5
20260508164213 67 218 6.1 9.6 0.00 0.00 0.00 50 1015.5
20260508163727 67 251 2.6 10.4 0.00 0.00 0.00 53 1015.6
20260508163220 67 269 5.2 10.4 0.00 0.00 0.00 51 1015.8
20260508162718 67 230 4.3 10.4 0.00 0.00 0.00 51 1015.8
20260508162231 67 251 4.3 10.4 0.00 0.00 0.00 51 1015.7
20260508161725 67 203 4.3 8.7 0.00 0.00 0.00 50 1015.9
20260508161218 67 202 5.2 10.4 0.00 0.00 0.00 52 1015.9
20260508160731 67 241 4.3 12.2 0.00 0.00 0.00 52 1016.0
20260508160225 67 221 3.5 7.0 0.00 0.00 0.00 53 1016.2
20260508155752 66 201 1.7 9.6 0.00 0.00 0.00 54 1016.2
20260508155225 66 231 6.1 9.6 0.00 0.00 0.00 52 1016.4
20260508154740 66 223 3.5 7.0 0.00 0.00 0.00 54 1016.3
20260508154216 66 234 3.5 8.7 0.00 0.00 0.00 56 1016.3
20260508153729 65 204 4.3 9.6 0.00 0.00 0.00 54 1016.4
20260508153243 65 192 5.2 7.8 0.00 0.00 0.00 53 1016.5
20260508152716 65 205 3.5 7.8 0.00 0.00 0.00 56 1016.4
20260508152229 65 194 3.5 10.4 0.00 0.00 0.00 56 1016.5
20260508151723 65 217 5.2 10.4 0.00 0.00 0.00 54 1016.6
20260508151216 64 211 4.3 7.8 0.00 0.00 0.00 56 1016.7
20260508150730 64 203 4.3 8.7 0.00 0.00 0.00 54 1016.7
20260508150224 64 271 1.7 10.4 0.00 0.00 0.00 58 1016.7
20260508145735 64 237 3.5 10.4 0.00 0.00 0.00 55 1016.7
20260508145228 63 265 5.2 7.8 0.00 0.00 0.00 54 1016.8
20260508144722 63 282 2.6 7.8 0.00 0.00 0.00 57 1016.9
20260508144215 63 234 3.5 8.7 0.00 0.00 0.00 57 1016.9
20260508143728 63 221 4.3 9.6 0.00 0.00 0.00 56 1016.9
20260508143221 62 207 5.2 9.6 0.00 0.00 0.00 56 1016.7
20260508142735 62 247 3.5 9.6 0.00 0.00 0.00 56 1016.7
20260508142228 62 245 2.6 9.6 0.00 0.00 0.00 57 1016.8
20260508141721 62 210 3.5 7.0 0.00 0.00 0.00 56 1016.9
20260508141219 62 223 2.6 7.0 0.00 0.00 0.00 59 1016.9
20260508140713 61 206 2.6 7.8 0.00 0.00 0.00 57 1016.9
20260508140227 61 206 4.3 7.8 0.00 0.00 0.00 58 1017.0
20260508135734 61 207 1.7 6.1 0.00 0.00 0.00 61 1017.0
20260508135247 60 194 3.5 6.1 0.00 0.00 0.00 59 1017.1
20260508134719 59 228 2.6 4.3 0.00 0.00 0.00 60 1017.1
20260508134213 59 217 2.6 7.8 0.00 0.00 0.00 61 1017.1
20260508133727 58 214 3.5 7.8 0.00 0.00 0.00 62 1017.1
20260508133220 58 214 1.7 5.2 0.00 0.00 0.00 66 1017.1
20260508132718 57 231 3.5 5.2 0.00 0.00 0.00 65 1017.1
20260508132231 56 238 2.6 5.2 0.00 0.00 0.00 67 1017.0
20260508131725 56 219 2.6 5.2 0.00 0.00 0.00 67 1017.0
20260508131218 55 236 1.7 5.2 0.00 0.00 0.00 69 1017.0
20260508130751 55 231 1.7 3.5 0.00 0.00 0.00 71 1017.0
20260508130224 54 219 1.7 4.3 0.00 0.00 0.00 71 1017.0
20260508125730 54 203 1.7 4.3 0.00 0.00 0.00 71 1017.0
20260508125219 53 200 0.9 3.5 0.00 0.00 0.00 72 1017.1
20260508124716 52 195 2.6 3.5 0.00 0.00 0.00 72 1017.0
20260508124230 51 195 1.7 3.5 0.00 0.00 0.00 73 1017.0
20260508123724 51 168 1.7 3.5 0.00 0.00 0.00 75 1017.0
20260508123214 50 160 0.9 3.5 0.00 0.00 0.00 74 1016.9
20260508122728 49 184 1.7 4.3 0.00 0.00 0.00 75 1017.0
20260508122221 49 188 2.6 5.2 0.00 0.00 0.00 75 1017.0
20260508121715 48 153 2.6 5.2 0.00 0.00 0.00 76 1017.0
20260508121249 48 185 2.6 4.3 0.00 0.00 0.00 77 1017.0
20260508120741 47 186 2.6 4.3 0.00 0.00 0.00 77 1017.0
20260508120218 47 176 2.6 4.3 0.00 0.00 0.00 77 1016.9
20260508115745 46 143 2.6 3.5 0.00 0.00 0.00 78 1016.9
20260508115237 46 201 1.7 3.5 0.00 0.00 0.00 78 1016.9
20260508114730 45 190 1.7 4.3 0.00 0.00 0.00 79 1016.7
20260508114243 45 192 1.7 4.3 0.00 0.00 0.00 79 1016.7
20260508113716 44 164 2.6 4.3 0.00 0.00 0.00 80 1016.7
20260508113229 44 173 2.6 3.5 0.00 0.00 0.00 80 1016.6
20260508112723 44 185 2.6 3.5 0.00 0.00 0.00 80 1016.6
20260508112253 43 183 2.6 3.5 0.00 0.00 0.00 81 1016.5
20260508111746 43 188 2.6 3.5 0.00 0.00 0.00 82 1016.5
20260508111218 42 186 2.6 3.5 0.00 0.00 0.00 82 1016.4
20260508110716 42 195 2.6 3.5 0.00 0.00 0.00 83 1016.5
20260508110250 41 192 2.6 4.3 0.00 0.00 0.00 84 1016.4
20260508105715 41 167 2.6 4.3 0.00 0.00 0.00 85 1016.3
20260508105229 40 163 3.5 5.2 0.00 0.00 0.00 85 1016.3
20260508104722 40 186 3.5 5.2 0.00 0.00 0.00 85 1016.2
20260508104216 40 174 3.5 4.3 0.00 0.00 0.00 85 1016.2
20260508103730 40 169 3.5 4.3 0.00 0.00 0.00 85 1016.2
20260508103223 40 169 3.5 5.2 0.00 0.00 0.00 85 1016.3
20260508102737 40 169 4.3 5.2 0.00 0.00 0.00 85 1016.2
20260508102229 40 169 3.5 4.3 0.00 0.00 0.00 85 1016.3
20260508101726 40 171 3.5 3.5 0.00 0.00 0.00 85 1016.3
20260508101220 40 180 2.6 3.5 0.00 0.00 0.00 85 1016.3
20260508100753 41 184 2.6 3.5 0.00 0.00 0.00 84 1016.2
20260508100247 41 174 2.6 3.5 0.00 0.00 0.00 84 1016.2
20260508095732 41 179 2.6 3.5 0.00 0.00 0.00 84 1016.3
20260508095226 41 186 2.6 4.3 0.00 0.00 0.00 84 1016.3
20260508094719 41 178 2.6 4.3 0.00 0.00 0.00 84 1016.3
20260508094213 41 169 2.6 4.3 0.00 0.00 0.00 84 1016.3
20260508093727 41 175 2.6 4.3 0.00 0.00 0.00 84 1016.2
20260508093224 41 176 3.5 4.3 0.00 0.00 0.00 83 1016.2
20260508092738 41 183 2.6 4.3 0.00 0.00 0.00 83 1016.3
20260508092231 41 179 2.6 3.5 0.00 0.00 0.00 83 1016.3
20260508091724 41 186 2.6 4.3 0.00 0.00 0.00 83 1016.2
20260508091218 41 186 3.5 4.3 0.00 0.00 0.00 83 1016.2
20260508090732 41 170 3.5 4.3 0.00 0.00 0.00 83 1016.1
20260508090226 41 167 3.5 4.3 0.00 0.00 0.00 83 1016.1
20260508085732 41 174 2.6 3.5 0.00 0.00 0.00 83 1016.1
20260508085230 41 173 2.6 3.5 0.00 0.00 0.00 83 1016.1
20260508084744 41 186 2.6 3.5 0.00 0.00 0.00 83 1016.0
20260508084216 41 191 2.6 3.5 0.00 0.00 0.00 83 1016.1
20260508083730 42 184 2.6 3.5 0.00 0.00 0.00 83 1016.1
20260508083224 42 180 2.6 3.5 0.00 0.00 0.00 83 1016.0
20260508082718 42 186 2.6 3.5 0.00 0.00 0.00 83 1016.0
20260508082231 42 182 2.6 3.5 0.00 0.00 0.00 82 1016.0
20260508081724 42 175 2.6 3.5 0.00 0.00 0.00 82 1015.9
20260508081222 42 185 2.6 3.5 0.00 0.00 0.00 82 1015.9
20260508080716 42 187 1.7 3.5 0.00 0.00 0.00 82 1015.9
20260508080230 42 178 1.7 3.5 0.00 0.00 0.00 82 1015.9
20260508075717 42 176 2.6 4.3 0.00 0.00 0.00 82 1016.0
20260508075231 42 187 2.6 4.3 0.00 0.00 0.00 82 1015.9
20260508074745 42 176 4.3 4.3 0.00 0.00 0.00 82 1015.9
20260508074218 42 168 2.6 3.5 0.00 0.00 0.00 82 1016.0
20260508073731 43 176 2.6 3.5 0.00 0.00 0.00 81 1016.0
20260508073225 43 167 2.6 4.3 0.00 0.00 0.00 80 1016.0
20260508072723 43 169 3.5 3.5 0.00 0.00 0.00 79 1016.1
20260508072217 44 173 2.6 3.5 0.00 0.00 0.00 78 1016.1
20260508071731 44 186 2.6 3.5 0.00 0.00 0.00 78 1016.2
20260508071225 44 195 2.6 4.3 0.00 0.00 0.00 77 1016.2
20260508070739 44 194 3.5 3.5 0.00 0.00 0.00 77 1016.2
20260508070230 44 184 2.6 3.5 0.00 0.00 0.00 76 1016.3
20260508065718 45 188 2.6 3.5 0.00 0.00 0.00 76 1016.3
20260508065252 45 191 2.6 2.6 0.00 0.00 0.00 76 1016.4
20260508064724 45 189 1.7 1.7 0.00 0.00 0.00 76 1016.4
20260508064222 45 198 0.9 1.7 0.00 0.00 0.00 76 1016.5
20260508063716 46 212 0.9 2.6 0.00 0.00 0.00 73 1016.5
20260508063229 46 229 1.7 3.5 0.00 0.00 0.00 74 1016.5
20260508062724 45 206 1.7 3.5 0.00 0.00 0.00 75 1016.5
20260508062217 45 211 1.7 3.5 0.00 0.00 0.00 77 1016.5
20260508061731 45 209 1.7 3.5 0.00 0.00 0.00 77 1016.6
20260508061245 45 200 2.6 3.5 0.00 0.00 0.00 76 1016.6
20260508060737 45 195 1.7 3.5 0.00 0.00 0.00 75 1016.6
20260508060214 46 196 1.7 3.5 0.00 0.00 0.00 74 1016.7
20260508055721 46 226 2.6 3.5 0.00 0.00 0.00 75 1016.8
20260508055235 45 218 1.7 3.5 0.00 0.00 0.00 76 1016.8
20260508054747 45 212 1.7 3.5 0.00 0.00 0.00 77 1016.9
20260508054239 45 231 2.6 3.5 0.00 0.00 0.00 77 1016.9
20260508053752 45 229 2.6 3.5 0.00 0.00 0.00 77 1016.8
20260508053225 45 211 1.7 3.5 0.00 0.00 0.00 79 1016.8
20260508052718 45 203 2.6 3.5 0.00 0.00 0.00 78 1016.7
20260508052232 45 215 2.6 3.5 0.00 0.00 0.00 78 1016.7
20260508051726 44 210 1.7 2.6 0.00 0.00 0.00 81 1016.7
20260508051219 45 210 1.7 2.6 0.00 0.00 0.00 81 1016.6
20260508050717 45 188 1.7 1.7 0.00 0.00 0.00 79 1016.7
20260508050230 45 217 0.9 2.6 0.00 0.00 0.00 81 1016.7
20260508045718 45 217 1.7 2.6 0.00 0.00 0.00 79 1016.6
20260508045232 45 192 1.7 2.6 0.00 0.00 0.00 79 1016.6
20260508044745 45 188 1.7 2.6 0.00 0.00 0.00 80 1016.6
20260508044218 45 198 0.9 2.6 0.00 0.00 0.00 79 1016.8
20260508043732 45 187 1.7 2.6 0.00 0.00 0.00 79 1016.7
20260508043226 45 195 1.7 2.6 0.00 0.00 0.00 79 1016.7
20260508042739 46 193 1.7 2.6 0.00 0.00 0.00 79 1016.7
20260508042215 46 185 1.7 2.6 0.00 0.00 0.00 77 1016.8
20260508041728 46 191 1.7 2.6 0.00 0.00 0.00 77 1016.8
20260508041222 46 192 1.7 1.7 0.00 0.00 0.00 78 1016.8
20260508040716 46 186 1.7 1.7 0.00 0.00 0.00 77 1016.8
20260508040249 47 195 1.7 2.6 0.00 0.00 0.00 75 1016.7
20260508035714 47 191 1.7 2.6 0.00 0.00 0.00 75 1016.7
20260508035228 47 174 1.7 3.5 0.00 0.00 0.00 75 1016.6
20260508034742 47 175 2.6 3.5 0.00 0.00 0.00 74 1016.7
20260508034214 48 170 2.6 3.5 0.00 0.00 0.00 73 1016.8
20260508033732 48 173 2.6 2.6 0.00 0.00 0.00 72 1016.8
20260508033226 48 169 1.7 2.6 0.00 0.00 0.00 72 1016.9
20260508032719 48 172 2.6 3.5 0.00 0.00 0.00 72 1016.8
20260508032252 48 174 2.6 3.5 0.00 0.00 0.00 72 1016.8
20260508031724 48 164 2.6 3.5 0.00 0.00 0.00 72 1016.7
20260508031238 48 149 2.6 3.5 0.00 0.00 0.00 72 1016.7
20260508030730 48 164 2.6 3.5 0.00 0.00 0.00 71 1016.6
20260508030224 49 153 1.7 3.5 0.00 0.00 0.00 71 1016.7
20260508025730 49 164 2.6 3.5 0.00 0.00 0.00 70 1016.6
20260508025228 49 143 2.6 3.5 0.00 0.00 0.00 68 1016.6
20260508024721 50 157 1.7 2.6 0.00 0.00 0.00 68 1016.6
20260508024215 50 162 1.7 2.6 0.00 0.00 0.00 67 1016.6
20260508023727 50 158 2.6 3.5 0.00 0.00 0.00 66 1016.6
20260508023220 50 164 2.6 3.5 0.00 0.00 0.00 65 1016.5
20260508022732 50 161 2.6 3.5 0.00 0.00 0.00 64 1016.5
20260508022226 51 176 2.6 2.6 0.00 0.00 0.00 64 1016.5
20260508021719 51 202 0.9 0.9 0.00 0.00 0.00 60 1016.6
20260508021217 51 202 0.9 0.9 0.00 0.00 0.00 60 1016.6
20260508020731 52 266 0.0 0.9 0.00 0.00 0.00 59 1016.6
20260508020225 52 269 0.0 0.0 0.00 0.00 0.00 57 1016.5
20260508015730 52 269 0.0 0.0 0.00 0.00 0.00 54 1016.5
20260508015223 53 269 0.0 0.0 0.00 0.00 0.00 54 1016.5
20260508014716 53 269 0.0 0.0 0.00 0.00 0.00 54 1016.4
20260508014230 53 269 0.0 0.0 0.00 0.00 0.00 54 1016.5
20260508013743 53 269 0.0 0.0 0.00 0.00 0.00 54 1016.5